createdAt,value
2022-12-24T00:00:33.404Z,0
2022-12-24T00:10:41.670Z,0
2022-12-24T00:15:45.850Z,0
2022-12-24T00:20:50.042Z,0
2022-12-24T00:25:54.171Z,0
2022-12-24T00:30:58.370Z,0
2022-12-24T00:36:02.480Z,0
2022-12-24T00:41:06.698Z,0
2022-12-24T00:46:10.819Z,0
2022-12-24T00:51:15.024Z,0
2022-12-24T00:56:17.418Z,0
2022-12-24T01:01:21.609Z,0
2022-12-24T01:06:23.735Z,0
2022-12-24T01:11:27.861Z,0
2022-12-24T01:16:32.056Z,0
2022-12-24T01:21:36.186Z,0
2022-12-24T01:26:40.351Z,0
2022-12-24T01:31:44.589Z,0
2022-12-24T01:36:48.621Z,0
2022-12-24T01:41:52.813Z,0
2022-12-24T01:46:57.062Z,0
2022-12-24T01:52:01.146Z,0
2022-12-24T01:57:05.283Z,0
2022-12-24T02:02:09.576Z,0
2022-12-24T02:07:13.595Z,0
2022-12-24T02:12:17.769Z,0
2022-12-24T02:17:21.945Z,0
2022-12-24T02:22:26.118Z,0
2022-12-24T02:27:30.236Z,0
2022-12-24T02:32:34.431Z,0
2022-12-24T02:37:38.547Z,0
2022-12-24T02:42:42.722Z,0
2022-12-24T02:47:46.890Z,0
2022-12-24T02:52:49.180Z,0
2022-12-24T02:57:53.312Z,0
2022-12-24T03:02:55.639Z,0
2022-12-24T03:07:59.797Z,0
2022-12-24T03:13:03.949Z,0
2022-12-24T03:18:08.091Z,0
2022-12-24T03:23:12.247Z,0
2022-12-24T03:28:16.391Z,0
2022-12-24T03:33:20.557Z,0
2022-12-24T03:38:24.706Z,0
2022-12-24T03:43:28.881Z,0
2022-12-24T03:48:33.121Z,0
2022-12-24T03:53:37.185Z,0
2022-12-24T03:58:41.402Z,0
2022-12-24T04:03:45.588Z,0
2022-12-24T04:08:49.710Z,0
2022-12-24T04:13:53.845Z,0
2022-12-24T04:18:58.021Z,0
2022-12-24T04:24:02.176Z,0
2022-12-24T04:29:06.364Z,0
2022-12-24T04:34:10.501Z,0
2022-12-24T04:39:14.677Z,0
2022-12-24T04:44:18.811Z,0
2022-12-24T04:49:21.117Z,0
2022-12-24T04:54:25.262Z,0
2022-12-24T04:59:29.441Z,0
2022-12-24T05:04:33.587Z,0
2022-12-24T05:09:37.778Z,0
2022-12-24T05:14:41.896Z,0
2022-12-24T05:19:46.106Z,0
2022-12-24T05:24:50.230Z,0
2022-12-24T05:29:54.407Z,0
2022-12-24T05:34:56.706Z,0
2022-12-24T05:40:00.991Z,0
2022-12-24T05:45:04.981Z,0
2022-12-24T05:50:09.150Z,0
2022-12-24T05:55:13.330Z,0
2022-12-24T06:00:17.456Z,0
2022-12-24T06:05:21.592Z,0
2022-12-24T06:10:25.816Z,0
2022-12-24T06:15:29.943Z,0
2022-12-24T06:20:34.132Z,0
2022-12-24T06:25:38.389Z,0
2022-12-24T06:30:42.808Z,0
2022-12-24T06:35:44.712Z,0
2022-12-24T06:40:48.896Z,0
2022-12-24T06:45:51.189Z,0
2022-12-24T06:50:55.358Z,0
2022-12-24T06:55:59.495Z,0
2022-12-24T07:01:03.706Z,0
2022-12-24T07:06:07.778Z,0
2022-12-24T07:11:11.967Z,2
2022-12-24T07:16:16.315Z,7
2022-12-24T07:21:20.267Z,16
2022-12-24T07:26:24.423Z,26
2022-12-24T07:31:28.691Z,58
2022-12-24T07:36:32.792Z,77
2022-12-24T07:41:41.733Z,76
2022-12-24T07:46:41.170Z,113
2022-12-24T07:51:45.232Z,154
2022-12-24T07:56:49.418Z,213
2022-12-24T08:01:53.771Z,282
2022-12-24T08:06:57.748Z,335
2022-12-24T08:12:01.901Z,440
2022-12-24T08:17:06.038Z,609
2022-12-24T08:22:10.207Z,675
2022-12-24T08:27:14.360Z,856
2022-12-24T08:32:16.646Z,893
2022-12-24T08:37:20.796Z,594
2022-12-24T08:42:23.123Z,841
2022-12-24T08:47:27.316Z,842
2022-12-24T08:52:31.408Z,1014
2022-12-24T08:57:35.543Z,876
2022-12-24T09:02:39.932Z,753
2022-12-24T09:07:43.884Z,771
2022-12-24T09:12:48.066Z,1541
2022-12-24T09:17:52.210Z,1525
2022-12-24T09:22:56.360Z,1467
2022-12-24T09:28:00.549Z,2537
2022-12-24T09:33:04.712Z,1930
2022-12-24T09:38:08.827Z,1850
2022-12-24T09:43:13.092Z,3370
2022-12-24T09:48:17.179Z,3834
2022-12-24T09:53:21.345Z,4391
2022-12-24T09:58:25.518Z,3050
2022-12-24T10:03:29.730Z,4352
2022-12-24T10:08:33.802Z,3113
2022-12-24T10:13:38.002Z,2337
2022-12-24T10:18:48.904Z,1607
2022-12-24T10:23:46.308Z,2047
2022-12-24T10:28:48.592Z,2868
2022-12-24T10:33:52.759Z,3420
2022-12-24T10:38:55.019Z,2944
2022-12-24T10:43:59.159Z,4113
2022-12-24T10:49:03.349Z,3329
2022-12-24T10:54:07.485Z,3364
2022-12-24T10:59:11.660Z,3956
2022-12-24T11:04:15.821Z,3150
2022-12-24T11:09:19.960Z,3565
2022-12-24T11:14:24.182Z,5120
2022-12-24T11:19:28.318Z,2243
2022-12-24T11:24:32.443Z,4046
2022-12-24T11:29:36.645Z,2043
2022-12-24T11:34:41.316Z,4520
2022-12-24T11:39:44.955Z,3159
2022-12-24T11:44:49.104Z,1969
2022-12-24T11:49:53.247Z,1826
2022-12-24T11:54:57.435Z,1910
2022-12-24T12:00:01.572Z,1643
2022-12-24T12:05:05.749Z,3616
2022-12-24T12:10:09.923Z,3057
2022-12-24T12:15:14.069Z,3267
2022-12-24T12:20:18.262Z,3326
2022-12-24T12:25:20.472Z,2281
2022-12-24T12:30:24.747Z,2715
2022-12-24T12:35:26.961Z,4203
2022-12-24T12:40:31.089Z,3165
2022-12-24T12:45:35.268Z,2902
2022-12-24T12:50:39.400Z,1908
2022-12-24T12:55:43.604Z,2224
2022-12-24T13:00:47.772Z,3611
2022-12-24T13:05:51.913Z,3326
2022-12-24T13:10:56.074Z,4601
2022-12-24T13:16:00.342Z,3311
2022-12-24T13:21:04.371Z,2920
2022-12-24T13:26:08.550Z,2902
2022-12-24T13:31:12.779Z,2981
2022-12-24T13:36:16.945Z,3530
2022-12-24T13:41:21.032Z,2087
2022-12-24T13:46:25.201Z,2300
2022-12-24T13:51:29.351Z,1760
2022-12-24T13:56:33.537Z,1509
2022-12-24T14:01:37.850Z,1480
2022-12-24T14:06:41.851Z,1380
2022-12-24T14:11:46.001Z,1224
2022-12-24T14:16:50.400Z,1148
2022-12-24T14:21:52.445Z,1120
2022-12-24T14:26:56.586Z,1134
2022-12-24T14:31:58.900Z,1073
2022-12-24T14:37:03.012Z,1019
2022-12-24T14:42:07.158Z,1004
2022-12-24T14:47:11.459Z,903
2022-12-24T14:52:37.912Z,802
2022-12-24T14:57:19.749Z,715
2022-12-24T15:02:24.018Z,616
2022-12-24T15:07:28.009Z,503
2022-12-24T15:12:32.161Z,401
2022-12-24T15:17:36.305Z,297
2022-12-24T15:22:40.477Z,215
2022-12-24T15:27:44.652Z,147
2022-12-24T15:32:48.785Z,99
2022-12-24T15:37:53.000Z,63
2022-12-24T15:42:57.318Z,36
2022-12-24T15:48:01.283Z,19
2022-12-24T15:53:20.786Z,9
2022-12-24T15:58:09.577Z,4
2022-12-24T16:03:13.905Z,1
2022-12-24T16:08:17.919Z,0
2022-12-24T16:13:22.105Z,0
2022-12-24T16:18:24.377Z,0
2022-12-24T16:23:28.559Z,0
2022-12-24T16:28:30.799Z,0
2022-12-24T16:33:34.979Z,0
2022-12-24T16:38:39.117Z,0
2022-12-24T16:43:43.328Z,0
2022-12-24T16:48:47.448Z,0
2022-12-24T16:53:51.621Z,0
2022-12-24T16:58:56.221Z,0
2022-12-24T17:04:00.310Z,0
2022-12-24T17:09:04.154Z,0
2022-12-24T17:14:08.960Z,0
2022-12-24T17:19:12.409Z,0
2022-12-24T17:24:16.596Z,0
2022-12-24T17:29:20.801Z,0
2022-12-24T17:34:24.933Z,0
2022-12-24T17:39:29.099Z,0
2022-12-24T17:44:33.225Z,0
2022-12-24T17:49:37.431Z,0
2022-12-24T17:54:41.567Z,0
2022-12-24T17:59:45.738Z,0
2022-12-24T18:04:49.910Z,0
2022-12-24T18:09:54.057Z,0
2022-12-24T18:14:56.319Z,0
2022-12-24T18:20:00.519Z,0
2022-12-24T18:25:02.780Z,0
2022-12-24T18:30:06.934Z,0
2022-12-24T18:35:11.098Z,0
2022-12-24T18:40:15.261Z,0
2022-12-24T18:45:19.413Z,0
2022-12-24T18:50:23.663Z,0
2022-12-24T18:55:27.770Z,0
2022-12-24T19:00:32.099Z,0
2022-12-24T19:05:36.095Z,0
2022-12-24T19:10:40.244Z,0
2022-12-24T19:15:44.431Z,0
2022-12-24T19:20:48.551Z,0
2022-12-24T19:25:52.736Z,0
2022-12-24T19:30:56.912Z,0
2022-12-24T19:36:01.049Z,0
2022-12-24T19:41:05.206Z,0
2022-12-24T19:46:09.552Z,0
2022-12-24T19:51:13.577Z,0
2022-12-24T19:56:17.724Z,0
2022-12-24T20:01:22.115Z,0
2022-12-24T20:06:26.062Z,0
2022-12-24T20:11:28.291Z,0
2022-12-24T20:16:32.578Z,0
2022-12-24T20:21:34.744Z,0
2022-12-24T20:26:38.912Z,0
2022-12-24T20:31:43.189Z,0
2022-12-24T20:36:47.223Z,0
2022-12-24T20:41:51.385Z,0
2022-12-24T20:46:55.542Z,0
2022-12-24T20:51:59.714Z,0
2022-12-24T20:57:03.896Z,0
2022-12-24T21:02:08.295Z,0
2022-12-24T21:07:12.205Z,0
2022-12-24T21:12:16.375Z,0
2022-12-24T21:17:20.634Z,0
2022-12-24T21:22:24.740Z,0
2022-12-24T21:27:28.863Z,0
2022-12-24T21:32:33.038Z,0
2022-12-24T21:37:37.181Z,0
2022-12-24T21:42:41.364Z,0
2022-12-24T21:47:45.507Z,0
2022-12-24T21:52:49.705Z,0
2022-12-24T21:57:53.889Z,0
2022-12-24T22:02:58.253Z,0
2022-12-24T22:08:00.468Z,0
2022-12-24T22:13:04.478Z,0
2022-12-24T22:18:08.603Z,0
2022-12-24T22:23:12.761Z,0
2022-12-24T22:28:15.041Z,0
2022-12-24T22:33:17.313Z,0
2022-12-24T22:38:21.534Z,0
2022-12-24T22:43:25.750Z,0
2022-12-24T22:48:29.837Z,0
2022-12-24T22:53:33.969Z,0
2022-12-24T22:58:38.150Z,0
2022-12-24T23:03:42.448Z,0
2022-12-24T23:08:46.460Z,0
2022-12-24T23:13:50.593Z,0
2022-12-24T23:18:54.765Z,0
2022-12-24T23:23:58.962Z,0
2022-12-24T23:29:03.072Z,0
2022-12-24T23:34:07.242Z,0
2022-12-24T23:39:11.418Z,0
2022-12-24T23:44:15.608Z,0
2022-12-24T23:49:19.711Z,0
2022-12-24T23:54:23.930Z,0
2022-12-24T23:59:28.039Z,0
